Time;durP1;ratioP1;P1;durP2;ratioP2;P2;SDS_P1;SDS_P2;PMS_P1;PMS_P2;Temp;Humidity;BMP_temperature;BMP_pressure;BME280_temperature;BME280_humidity;BME280_pressure;Samples;Min_cycle;Max_cycle;Signal;HPM_P1;HPM_P2
2021/08/11 00:02:26;;;;;;;10.65;5.57;;;;;;;;;;21168620;28;20173;-70
2021/08/11 00:12:27;;;;;;;12.20;5.45;;;30.30;36.70;;;;;;21148962;28;20403;-72
2021/08/11 00:22:29;;;;;;;10.27;5.50;;;30.10;37.10;;;;;;21159263;28;20044;-73
2021/08/11 00:32:31;;;;;;;10.63;5.50;;;29.30;38.70;;;;;;21166799;28;20059;-71
2021/08/11 00:42:33;;;;;;;22.80;5.50;;;29.10;38.80;;;;;;21166117;28;20050;-73
2021/08/11 00:52:36;;;;;;;18.15;5.20;;;29.20;38.90;;;;;;21164875;28;20052;-70
2021/08/11 01:02:44;;;;;;;15.90;4.45;;;29.30;38.80;;;;;;21163537;28;20059;-71
2021/08/11 01:12:50;;;;;;;16.80;4.90;;;29.50;38.70;;;;;;21162778;28;20073;-69
2021/08/11 01:23:07;;;;;;;15.70;5.15;;;29.40;38.80;;;;;;21162957;28;20043;-68
2021/08/11 01:33:30;;;;;;;20.83;8.38;;;29.40;39.00;;;;;;21162610;28;20495;-72
2021/08/11 01:43:39;;;;;;;13.85;4.70;;;29.30;39.10;;;;;;21162630;28;20047;-64
2021/08/11 01:53:41;;;;;;;18.33;5.50;;;29.30;39.30;;;;;;21162226;28;20054;-66
2021/08/11 02:03:43;;;;;;;18.25;4.90;;;29.20;39.50;;;;;;21161586;28;20044;-73
2021/08/11 02:13:44;;;;;;;16.02;4.90;;;29.20;39.50;;;;;;21161380;28;20083;-71
2021/08/11 02:23:46;;;;;;;21.90;6.28;;;29.10;39.60;;;;;;21161388;28;20052;-67
2021/08/11 02:34:00;;;;;;;15.85;4.20;;;29.10;39.50;;;;;;21172060;28;20055;-67
2021/08/11 02:44:10;;;;;;;18.42;4.78;;;29.10;39.50;;;;;;21174635;28;20059;-73
2021/08/11 02:54:14;;;;;;;26.40;5.70;;;29.00;39.60;;;;;;21174069;28;20047;-73
2021/08/11 03:04:17;;;;;;;15.80;5.13;;;28.90;39.60;;;;;;21173012;28;20044;-66
2021/08/11 03:14:21;;;;;;;20.10;4.80;;;28.80;39.90;;;;;;21172662;28;20397;-69
2021/08/11 03:24:24;;;;;;;19.58;5.03;;;28.70;40.20;;;;;;21171167;28;20139;-65
2021/08/11 03:34:28;;;;;;;14.43;4.90;;;28.40;42.10;;;;;;21170805;28;20058;-69
2021/08/11 03:44:31;;;;;;;16.05;6.47;;;28.00;42.50;;;;;;21169722;28;20048;-71
2021/08/11 03:54:34;;;;;;;16.83;5.70;;;27.80;42.60;;;;;;21170027;28;20089;-72
2021/08/11 04:04:37;;;;;;;17.40;5.40;;;27.60;43.00;;;;;;21169365;28;20048;-67
2021/08/11 04:14:41;;;;;;;16.98;5.72;;;27.50;43.20;;;;;;21150067;28;20427;-65
2021/08/11 04:24:44;;;;;;;16.33;5.15;;;;;;;;;;21152951;28;20373;-65
2021/08/11 04:34:48;;;;;;;18.83;5.43;;;;;;;;;;21166734;28;20058;-66
2021/08/11 04:44:52;;;;;;;18.05;6.95;;;;;;;;;;21147527;28;20121;-67
2021/08/11 04:55:12;;;;;;;18.48;7.20;;;;;;;;;;21164398;28;20051;-68
2021/08/11 05:05:14;;;;;;;15.13;4.80;;;;;;;;;;21164110;28;20417;-67
2021/08/11 05:15:16;;;;;;;20.08;6.45;;;;;;;;;;21164149;28;20059;-71
2021/08/11 05:25:19;;;;;;;17.10;5.20;;;;;;;;;;21164207;28;20090;-72
2021/08/11 05:35:25;;;;;;;31.20;6.57;;;;;;;;;;21163668;28;20483;-71
2021/08/11 05:45:32;;;;;;;37.78;12.98;;;;;;;;;;21167682;28;20056;-71
2021/08/11 05:55:34;;;;;;;22.35;5.85;;;;;;;;;;21162910;28;20051;-67
2021/08/11 06:05:39;;;;;;;18.45;5.55;;;;;;;;;;21169048;28;20095;-67
2021/08/11 06:15:41;;;;;;;20.40;5.35;;;;;;;;;;21177329;28;20407;-69
2021/08/11 06:25:43;;;;;;;15.07;5.40;;;;;;;;;;21176807;28;20196;-70
2021/08/11 06:35:48;;;;;;;17.33;5.75;;;;;;;;;;21176078;28;20079;-69
2021/08/11 06:45:56;;;;;;;24.45;5.80;;;;;;;;;;21174183;28;20078;-70
2021/08/11 06:55:58;;;;;;;17.42;5.63;;;;;;;;;;21173507;28;20089;-67
2021/08/11 07:06:06;;;;;;;23.30;6.13;;;;;;;;;;21173103;28;20051;-68
2021/08/11 07:16:09;;;;;;;19.77;6.38;;;;;;;;;;21154825;28;20122;-69
2021/08/11 07:26:11;;;;;;;19.60;7.18;;;;;;;;;;21171615;28;20055;-66
2021/08/11 07:36:13;;;;;;;22.17;7.22;;;;;;;;;;21171338;28;20126;-71
2021/08/11 07:46:28;;;;;;;23.35;6.43;;;;;;;;;;21169678;28;20047;-71
2021/08/11 07:56:30;;;;;;;21.70;5.93;;;;;;;;;;21169313;28;20044;-69
2021/08/11 08:06:34;;;;;;;22.05;5.13;;;;;;;;;;21167981;28;20048;-70
2021/08/11 08:16:36;;;;;;;21.35;5.82;;;;;;;;;;21167409;28;20043;-65
2021/08/11 08:26:46;;;;;;;29.00;6.10;;;;;;;;;;21165399;28;20048;-72
2021/08/11 08:36:50;;;;;;;25.70;6.80;;;31.90;35.00;;;;;;21165595;28;20092;-73
2021/08/11 08:46:56;;;;;;;28.77;6.20;;;31.20;36.00;;;;;;21166090;28;20108;-67
2021/08/11 08:57:09;;;;;;;35.17;7.75;;;31.10;36.40;;;;;;21163984;28;20050;-71
2021/08/11 09:07:16;;;;;;;26.00;7.03;;;;;;;;;;21165280;28;20048;-68
2021/08/11 09:17:38;;;;;;;26.75;7.18;;;;;;;;;;21163335;28;20393;-70
2021/08/11 09:27:41;;;;;;;25.08;6.60;;;;;;;;;;21162883;28;20062;-56
2021/08/11 09:37:51;;;;;;;29.55;6.32;;;;;;;;;;21150525;28;20143;-64
2021/08/11 09:48:02;;;;;;;24.13;6.68;;;;;;;;;;21178375;28;20097;-68
2021/08/11 09:58:19;;;;;;;25.50;6.25;;;;;;;;;;21161002;28;20101;-67
2021/08/11 10:08:29;;;;;;;30.08;7.28;;;;;;;;;;21177800;28;20476;-65
2021/08/11 10:18:40;;;;;;;26.38;6.03;;;;;;;;;;21159420;28;20071;-66
2021/08/11 10:28:43;;;;;;;29.60;6.80;;;;;;;;;;21175294;28;20062;-69
2021/08/11 10:38:50;;;;;;;36.40;7.93;;;;;;;;;;21175498;28;20396;-64
2021/08/11 10:49:02;;;;;;;31.85;7.25;;;;;;;;;;21174759;28;20051;-64
2021/08/11 10:59:25;;;;;;;26.60;7.43;;;;;;;;;;21172883;28;20059;-66
2021/08/11 11:09:29;;;;;;;26.40;6.93;;;;;;;;;;21173722;28;20142;-64
2021/08/11 11:19:33;;;;;;;38.58;9.32;;;;;;;;;;21172670;28;20054;-69
2021/08/11 11:29:48;;;;;;;34.15;7.22;;;;;;;;;;21170979;28;20063;-66
2021/08/11 11:39:58;;;;;;;26.92;6.95;;;35.40;30.50;;;;;;21171453;28;20469;-66
2021/08/11 11:50:19;;;;;;;27.40;7.25;;;34.80;31.30;;;;;;21171262;28;20502;-67
2021/08/11 12:00:22;;;;;;;24.95;8.25;;;34.80;31.20;;;;;;21168695;28;20052;-67
2021/08/11 12:10:27;;;;;;;30.77;8.30;;;34.80;31.20;;;;;;21170001;28;20047;-65
2021/08/11 12:20:33;;;;;;;35.65;8.05;;;35.10;30.50;;;;;;21172283;28;20040;-68
2021/08/11 12:30:56;;;;;;;29.77;6.85;;;35.40;30.10;;;;;;21068990;27;20489;-68
2021/08/11 12:41:12;;;;;;;32.03;7.70;;;35.50;29.80;;;;;;21068994;28;20480;-67
2021/08/11 12:51:23;;;;;;;32.47;7.13;;;35.60;29.90;;;;;;21067357;28;20044;-66
2021/08/11 13:01:45;;;;;;;26.30;7.75;;;36.10;28.80;;;;;;21068920;28;20512;-74
2021/08/11 13:11:48;;;;;;;31.48;8.52;;;36.30;27.80;;;;;;21075416;28;20170;-68
2021/08/11 13:21:50;;;;;;;23.42;6.75;;;36.40;27.30;;;;;;21066485;28;20139;-69
2021/08/11 13:31:55;;;;;;;27.95;7.85;;;36.40;27.00;;;;;;21064805;28;20048;-73
2021/08/11 13:41:58;;;;;;;35.40;8.18;;;;;;;;;;21009117;28;20565;-72
2021/08/11 13:52:00;;;;;;;22.23;7.15;;;;;;;;;;21008034;28;20481;-73
2021/08/11 14:02:02;;;;;;;27.00;7.20;;;;;;;;;;21007518;28;20056;-66
2021/08/11 14:12:04;;;;;;;25.80;8.23;;;;;;;;;;21005554;28;20056;-65
2021/08/11 14:22:07;;;;;;;30.08;7.80;;;;;;;;;;21005447;28;20048;-68
2021/08/11 14:32:09;;;;;;;26.85;7.57;;;;;;;;;;21003760;28;20151;-71
2021/08/11 14:42:11;;;;;;;30.48;8.15;;;;;;;;;;21003460;28;20209;-70
2021/08/11 14:52:15;;;;;;;29.15;7.80;;;;;;;;;;21000595;28;20052;-73
2021/08/11 15:02:17;;;;;;;25.35;7.60;;;;;;;;;;21000838;28;20052;-67
2021/08/11 15:12:19;;;;;;;32.63;8.25;;;;;;;;;;20999272;28;20055;-66
2021/08/11 15:22:21;;;;;;;25.95;7.70;;;;;;;;;;20999713;28;20363;-64
2021/08/11 15:32:23;;;;;;;29.92;7.88;;;;;;;;;;20997599;28;20048;-67
2021/08/11 15:42:25;;;;;;;38.58;9.75;;;;;;;;;;20997360;28;20087;-70
2021/08/11 15:52:28;;;;;;;30.23;8.93;;;;;;;;;;20996600;28;20539;-73
2021/08/11 16:02:30;;;;;;;26.38;7.20;;;;;;;;;;20996398;28;20052;-70
2021/08/11 16:12:33;;;;;;;29.77;7.88;;;;;;;;;;20996339;28;20076;-65
2021/08/11 16:22:35;;;;;;;29.20;8.50;;;;;;;;;;20996698;28;20053;-70
2021/08/11 16:32:38;;;;;;;34.97;8.60;;;;;;;;;;20995017;28;20044;-65
2021/08/11 16:42:40;;;;;;;31.65;7.10;;;;;;;;;;20994031;28;20052;-66
2021/08/11 16:52:42;;;;;;;31.45;6.78;;;;;;;;;;20994857;28;20106;-67
2021/08/11 17:02:44;;;;;;;27.00;7.07;;;;;;;;;;20993688;28;20509;-67
2021/08/11 17:12:46;;;;;;;26.67;7.53;;;;;;;;;;21001224;28;20079;-66
2021/08/11 17:22:48;;;;;;;30.90;7.75;;;;;;;;;;21007782;28;20052;-66
2021/08/11 17:32:50;;;;;;;26.23;7.28;;;;;;;;;;21006846;28;20048;-66
2021/08/11 17:42:53;;;;;;;27.85;7.35;;;;;;;;;;21006711;28;20052;-66
2021/08/11 17:52:55;;;;;;;35.33;9.07;;;;;;;;;;21007254;28;20369;-66
2021/08/11 18:02:56;;;;;;;27.17;8.10;;;;;;;;;;21006390;28;20503;-67
2021/08/11 18:12:58;;;;;;;30.13;8.40;;;;;;;;;;21005988;28;20040;-67
2021/08/11 18:23:00;;;;;;;33.00;8.00;;;;;;;;;;21009558;28;20055;-67
2021/08/11 18:33:02;;;;;;;30.17;8.55;;;;;;;;;;21007085;28;20056;-68
2021/08/11 18:43:03;;;;;;;24.08;9.77;;;;;;;;;;21004444;28;20052;-71
2021/08/11 18:53:05;;;;;;;34.00;8.65;;;;;;;;;;21002170;28;20413;-69
2021/08/11 19:03:07;;;;;;;60.15;12.63;;;;;;;;;;21001329;28;20049;-69
2021/08/11 19:13:09;;;;;;;48.63;9.52;;;;;;;;;;21001015;28;20071;-68
2021/08/11 19:23:12;;;;;;;37.53;8.98;;;;;;;;;;20999845;28;20398;-67
2021/08/11 19:33:14;;;;;;;29.73;7.25;;;;;;;;;;20999075;28;20455;-66
2021/08/11 19:43:16;;;;;;;38.85;9.30;;;;;;;;;;20999581;28;20052;-67
2021/08/11 19:53:17;;;;;;;38.45;12.00;;;;;;;;;;21002812;28;20109;-64
2021/08/11 20:03:19;;;;;;;22.98;7.38;;;;;;;;;;21028293;28;20044;-73
2021/08/11 20:13:21;;;;;;;23.10;6.50;;;;;;;;;;20997694;28;20048;-66
2021/08/11 20:23:23;;;;;;;21.13;6.50;;;;;;;;;;20998601;28;20056;-74
2021/08/11 20:33:25;;;;;;;22.25;5.38;;;;;;;;;;21001088;28;20044;-75
2021/08/11 20:43:27;;;;;;;22.08;6.93;;;;;;;;;;21004777;28;20107;-75
2021/08/11 20:53:29;;;;;;;23.30;5.60;;;;;;;;;;21017455;28;20052;-75
2021/08/11 21:03:30;;;;;;;22.00;6.10;;;;;;;;;;21014928;28;20396;-72
2021/08/11 21:13:39;;;;;;;27.48;7.30;;;;;;;;;;21010336;28;20045;-74
2021/08/11 21:23:41;;;;;;;24.17;5.67;;;;;;;;;;21008920;28;20135;-73
2021/08/11 21:33:43;;;;;;;20.45;6.60;;;;;;;;;;21007919;28;20063;-74
2021/08/11 21:43:46;;;;;;;20.25;6.20;;;;;;;;;;21007884;28;20497;-65
2021/08/11 21:53:48;;;;;;;32.47;6.53;;;;;;;;;;21006040;28;20048;-66
2021/08/11 22:03:49;;;;;;;21.50;6.75;;;32.50;30.40;;;;;;21005299;28;20053;-67
2021/08/11 22:13:50;;;;;;;31.42;7.50;;;31.80;31.50;;;;;;21004208;28;20036;-69
2021/08/11 22:23:52;;;;;;;22.58;6.20;;;32.10;30.40;;;;;;21004165;28;20056;-74
2021/08/11 22:33:53;;;;;;;32.30;6.25;;;31.30;31.20;;;;;;21003233;28;20515;-67
2021/08/11 22:43:54;;;;;;;17.27;4.60;;;31.20;31.30;;;;;;21003257;28;20493;-66
2021/08/11 22:53:56;;;;;;;28.90;5.63;;;31.10;31.00;;;;;;21002482;28;20432;-65
2021/08/11 23:03:57;;;;;;;26.05;6.15;;;31.10;31.00;;;;;;21000720;28;20105;-66
2021/08/11 23:13:59;;;;;;;22.38;5.57;;;31.10;30.90;;;;;;20998596;28;20106;-69
2021/08/11 23:24:00;;;;;;;19.65;5.53;;;30.90;31.20;;;;;;21000258;28;20117;-70
2021/08/11 23:34:02;;;;;;;19.92;5.10;;;;;;;;;;20999533;28;20501;-66
2021/08/11 23:44:03;;;;;;;16.27;4.63;;;;;;;;;;20997892;28;20048;-72
2021/08/11 23:54:06;;;;;;;19.45;5.05;;;;;;;;;;20997133;28;20052;-67
